Time;durP1;ratioP1;P1;durP2;ratioP2;P2;SDS_P1;SDS_P2;PMS_P1;PMS_P2;Temp;Humidity;BMP_temperature;BMP_pressure;BME280_temperature;BME280_humidity;BME280_pressure;Samples;Min_cycle;Max_cycle;Signal;HPM_P1;HPM_P2
2023/05/25 00:01:58;;;;;;;;;27.50;22.25;;;;;17.59;68.24;100599.34;5080572;27;45464;-75
2023/05/25 00:04:25;;;;;;;;;23.25;20.25;;;;;17.08;68.00;100519.09;5080367;28;46021;-74
2023/05/25 00:06:52;;;;;;;;;19.50;17.25;;;;;16.96;68.10;100490.06;5080235;28;45468;-74
2023/05/25 00:09:18;;;;;;;;;22.00;20.75;;;;;17.73;68.07;100624.91;5078890;27;45611;-74
2023/05/25 00:11:43;;;;;;;;;16.75;15.50;;;;;17.73;67.48;100620.50;5080443;28;45500;-74
2023/05/25 00:14:09;;;;;;;;;25.25;23.50;;;;;17.42;68.15;100569.34;5080047;28;46190;-74
2023/05/25 00:16:39;;;;;;;;;19.50;17.75;;;;;17.48;68.23;100579.94;5080175;27;45338;-74
2023/05/25 00:19:06;;;;;;;;;23.75;22.00;;;;;17.74;68.14;100619.59;5080141;28;45260;-74
2023/05/25 00:21:36;;;;;;;;;20.00;19.00;;;;;17.76;68.16;100616.97;5080208;28;45402;-74
2023/05/25 00:24:03;;;;;;;;;23.75;22.75;;;;;17.74;67.96;100613.44;5079726;28;46120;-74
2023/05/25 00:26:29;;;;;;;;;23.00;19.00;;;;;17.70;67.68;100605.50;5079781;28;45506;-74
2023/05/25 00:28:55;;;;;;;;;21.25;19.25;;;;;17.61;68.09;100589.66;5080223;28;45464;-74
2023/05/25 00:31:20;;;;;;;;;23.00;22.75;;;;;17.64;68.34;100608.13;5080144;28;45372;-74
2023/05/25 00:33:46;;;;;;;;;21.50;20.00;;;;;17.64;68.30;100608.13;5079694;27;46039;-74
2023/05/25 00:36:11;;;;;;;;;23.50;21.50;;;;;17.68;68.05;100609.03;5079822;28;45358;-74
2023/05/25 00:38:37;;;;;;;;;23.50;21.50;;;;;17.67;68.31;100597.59;5079578;28;45482;-74
2023/05/25 00:41:04;;;;;;;;;21.25;20.00;;;;;17.55;68.23;100584.38;5079815;28;45491;-75
2023/05/25 00:43:30;;;;;;;;;20.75;19.00;;;;;17.68;67.93;100596.69;5079676;28;46050;-72
2023/05/25 00:45:57;;;;;;;;;22.50;21.25;;;;;17.60;68.00;100581.72;5079856;28;45626;-74
2023/05/25 00:48:24;;;;;;;;;28.00;23.00;;;;;17.67;67.97;100594.06;5079729;28;45481;-74
2023/05/25 00:50:53;;;;;;;;;22.50;22.50;;;;;17.44;67.85;100549.13;5079549;28;45505;-74
2023/05/25 00:53:20;;;;;;;;;24.50;21.75;;;;;17.44;68.31;100565.84;5079452;28;45463;-74
2023/05/25 00:56:07;;;;;;;;;22.00;20.00;;;;;17.59;68.32;100591.41;5079315;28;45500;-74
2023/05/25 00:58:35;;;;;;;;;24.25;22.25;;;;;17.15;68.29;100518.25;5079296;28;45284;-75
2023/05/25 01:01:03;;;;;;;;;20.00;18.75;;;;;17.54;68.09;100582.59;5079615;27;45326;-74
2023/05/25 01:03:34;;;;;;;;;22.00;20.50;;;;;17.57;67.86;100579.09;5079303;28;46095;-74
2023/05/25 01:06:03;;;;;;;;;19.75;19.50;;;;;17.54;68.14;100569.38;5079342;28;45418;-74
2023/05/25 01:08:32;;;;;;;;;25.50;21.25;;;;;17.52;67.67;100571.13;5077475;27;45507;-74
2023/05/25 01:11:02;;;;;;;;;20.50;18.75;;;;;17.61;67.76;100583.50;5079351;28;45413;-74
2023/05/25 01:13:28;;;;;;;;;21.75;20.00;;;;;17.58;67.83;100581.72;5079214;27;46242;-74
2023/05/25 01:15:55;;;;;;;;;18.75;18.75;;;;;17.64;67.63;100589.63;5078840;27;45413;-74
2023/05/25 01:18:20;;;;;;;;;19.25;18.75;;;;;17.59;67.16;100586.13;5079125;28;45524;-74
2023/05/25 01:21:01;;;;;;;;;22.75;19.75;;;;;17.66;67.28;100595.81;5079367;28;45379;-74
2023/05/25 01:23:34;;;;;;;;;19.75;18.75;;;;;17.67;67.41;100591.44;5079285;28;46409;-74
2023/05/25 01:26:04;;;;;;;;;16.00;15.50;;;;;17.66;67.12;100587.00;5079255;28;45286;-74
2023/05/25 01:28:39;;;;;;;;;20.75;18.50;;;;;17.68;67.00;100588.75;5079100;28;45454;-74
2023/05/25 01:31:07;;;;;;;;;21.00;20.50;;;;;17.66;67.12;100587.00;5078991;28;45541;-74
2023/05/25 01:33:35;;;;;;;;;16.33;15.67;;;;;17.60;66.91;100569.38;5078550;27;46062;-74
2023/05/25 01:36:02;;;;;;;;;17.50;17.50;;;;;17.69;67.07;100587.03;5079188;28;45217;-74
2023/05/25 01:38:27;;;;;;;;;22.75;20.50;;;;;17.68;66.90;100586.13;5079054;27;45339;-74
2023/05/25 01:40:53;;;;;;;;;22.00;18.75;;;;;17.65;66.86;100572.94;5078817;28;45315;-74
2023/05/25 01:43:18;;;;;;;;;22.75;20.25;;;;;17.70;67.16;100575.56;5078652;28;45393;-74
2023/05/25 01:45:45;;;;;;;;;18.00;17.25;;;;;17.44;66.91;100535.91;5078616;28;45481;-73
2023/05/25 01:48:34;;;;;;;;;19.25;17.75;;;;;17.69;67.09;100574.69;5078856;28;45417;-74
2023/05/25 01:51:15;;;;;;;;;18.00;17.25;;;;;17.68;66.94;100582.59;5079324;28;45268;-74
2023/05/25 01:53:53;;;;;;;;;20.00;18.50;;;;;17.57;67.22;100572.03;5078244;28;46133;-74
2023/05/25 01:56:20;;;;;;;;;18.75;17.50;;;;;17.49;67.40;100555.31;5078460;28;45374;-74
2023/05/25 01:58:48;;;;;;;;;17.75;15.25;;;;;17.28;67.34;100524.44;5078392;28;45422;-74
2023/05/25 02:01:16;;;;;;;;;19.75;18.50;;;;;17.58;67.42;100567.63;5078737;28;45334;-74
2023/05/25 02:03:43;;;;;;;;;21.50;19.00;;;;;17.54;67.80;100579.94;5078202;28;45339;-74
2023/05/25 02:06:09;;;;;;;;;19.00;18.25;;;;;17.53;67.81;100578.19;5078341;28;45329;-74
2023/05/25 02:08:35;;;;;;;;;19.75;17.75;;;;;17.56;67.57;100582.59;5078302;28;45564;-74
2023/05/25 02:11:02;;;;;;;;;18.50;17.00;;;;;17.56;67.33;100577.31;5078841;28;45528;-73
2023/05/25 02:13:27;;;;;;;;;21.50;19.00;;;;;17.33;67.06;100548.19;5078241;28;45633;-74
2023/05/25 02:15:53;;;;;;;;;21.25;20.00;;;;;17.50;67.11;100572.91;5078104;28;45445;-74
2023/05/25 02:18:19;;;;;;;;;22.25;17.75;;;;;17.29;67.66;100540.28;5078110;28;45501;-74
2023/05/25 02:20:46;;;;;;;;;19.50;19.00;;;;;17.34;67.48;100553.50;5077981;28;45499;-74
2023/05/25 02:23:11;;;;;;;;;19.00;18.00;;;;;17.52;67.44;100573.78;5078070;28;45434;-74
2023/05/25 02:25:37;;;;;;;;;19.00;18.75;;;;;17.34;67.37;100544.69;5077998;28;45434;-74
2023/05/25 02:28:03;;;;;;;;;15.00;15.00;;;;;17.56;67.32;100572.91;5078423;28;45290;-74
2023/05/25 02:30:28;;;;;;;;;20.75;19.25;;;;;17.36;67.38;100538.53;5078125;28;45325;-74
2023/05/25 02:32:55;;;;;;;;;21.00;18.75;;;;;17.58;67.33;100570.28;5077447;28;46156;-74
2023/05/25 02:35:21;;;;;;;;;17.75;16.75;;;;;17.40;67.21;100560.56;5077641;28;45224;-73
2023/05/25 02:37:46;;;;;;;;;18.00;17.00;;;;;17.52;67.56;100573.78;5077836;28;45275;-74
2023/05/25 02:40:13;;;;;;;;;20.00;18.00;;;;;17.45;67.40;100558.81;5077832;28;45490;-74
2023/05/25 02:42:39;;;;;;;;;14.50;14.50;;;;;16.44;67.30;100386.09;5077849;28;46300;-74
2023/05/25 02:45:09;;;;;;;;;19.50;18.50;;;;;17.32;67.60;100549.97;5078027;28;45227;-74
2023/05/25 02:47:35;;;;;;;;;18.50;17.25;;;;;17.54;67.36;100584.34;5078104;28;45277;-73
2023/05/25 02:50:01;;;;;;;;;16.75;16.75;;;;;17.49;67.27;100576.44;5077897;28;45482;-74
2023/05/25 02:52:29;;;;;;;;;20.75;19.50;;;;;17.47;67.46;100573.78;5077515;28;45543;-73
2023/05/25 02:54:55;;;;;;;;;21.50;17.50;;;;;17.29;67.47;100532.38;5077438;28;45341;-74
2023/05/25 02:57:21;;;;;;;;;18.00;16.50;;;;;17.54;67.54;100566.72;5077741;28;45456;-74
2023/05/25 02:59:47;;;;;;;;;16.25;15.25;;;;;17.13;67.55;100487.44;5077641;28;45474;-74
2023/05/25 03:02:12;;;;;;;;;17.25;16.25;;;;;17.54;67.25;100552.66;5077351;28;45455;-74
2023/05/25 03:04:38;;;;;;;;;19.00;18.50;;;;;17.35;67.25;100515.66;5077322;27;45422;-74
2023/05/25 03:07:04;;;;;;;;;18.25;17.00;;;;;17.58;67.40;100563.22;5077788;28;45400;-74
2023/05/25 03:09:29;;;;;;;;;19.50;17.75;;;;;17.37;67.62;100524.47;5077627;28;45238;-74
2023/05/25 03:11:55;;;;;;;;;17.50;16.25;;;;;17.55;67.53;100555.31;5077233;28;45596;-73
2023/05/25 03:14:20;;;;;;;;;18.00;17.25;;;;;17.23;67.67;100505.97;5077456;28;45261;-74
2023/05/25 03:16:46;;;;;;;;;19.75;19.25;;;;;17.59;67.78;100553.56;5077443;28;45367;-74
2023/05/25 03:19:12;;;;;;;;;7.25;5.75;;;;;17.52;67.45;100531.53;5077516;28;45525;-74
2023/05/25 03:21:37;;;;;;;;;18.00;16.50;;;;;17.36;67.21;100503.34;5077638;27;45508;-74
2023/05/25 03:24:03;;;;;;;;;22.50;20.75;;;;;17.52;67.13;100533.28;5077454;28;45319;-74
2023/05/25 03:26:29;;;;;;;;;18.25;17.25;;;;;17.24;67.24;100497.16;5077328;28;45581;-74
2023/05/25 03:28:55;;;;;;;;;19.00;16.75;;;;;17.33;67.39;100519.16;5077340;28;45477;-73
2023/05/25 03:31:21;;;;;;;;;20.00;18.00;;;;;17.49;67.36;100534.16;5076780;28;46111;-74
2023/05/25 03:33:47;;;;;;;;;19.00;16.75;;;;;17.27;67.02;100491.88;5078669;27;45327;-73
2023/05/25 03:36:16;;;;;;;;;23.00;19.50;;;;;17.28;67.70;100498.91;5080942;28;45505;-74
2023/05/25 03:38:42;;;;;;;;;17.75;17.00;;;;;17.02;67.56;100463.69;5081016;28;45521;-74
2023/05/25 03:41:08;;;;;;;;;19.25;18.50;;;;;17.40;67.87;100531.50;5080913;28;45487;-74
2023/05/25 03:43:33;;;;;;;;;21.75;19.75;;;;;17.40;67.49;100528.88;5080534;28;45481;-74
2023/05/25 03:45:59;;;;;;;;;17.00;16.50;;;;;17.39;67.56;100532.38;5080851;28;45454;-73
2023/05/25 03:48:25;;;;;;;;;19.50;17.25;;;;;17.34;67.90;100519.16;5080800;28;45245;-74
2023/05/25 03:50:50;;;;;;;;;18.00;16.50;;;;;17.04;68.14;100488.31;5080314;28;46212;-74
2023/05/25 03:53:16;;;;;;;;;17.25;16.25;;;;;17.15;68.18;100501.53;5080574;28;45283;-74
2023/05/25 03:55:42;;;;;;;;;19.00;17.00;;;;;17.06;68.05;100474.22;5080600;27;45366;-74
2023/05/25 03:58:10;;;;;;;;;19.00;18.50;;;;;17.35;68.18;100525.31;5080821;28;45362;-73
2023/05/25 04:00:36;;;;;;;;;17.25;16.25;;;;;17.32;68.04;100523.56;5080366;28;46020;-73
2023/05/25 04:03:02;;;;;;;;;15.75;15.50;;;;;17.28;68.18;100520.03;5080232;27;45292;-74
2023/05/25 04:05:28;;;;;;;;;16.25;15.25;;;;;17.32;68.36;100526.19;5080411;28;45400;-73
2023/05/25 04:07:54;;;;;;;;;16.00;15.75;;;;;17.34;68.36;100523.56;5080534;28;45426;-74
2023/05/25 04:10:20;;;;;;;;;20.50;19.00;;;;;17.33;68.10;100519.16;5079939;27;45438;-73
2023/05/25 04:12:46;;;;;;;;;17.25;16.00;;;;;17.34;68.37;100518.28;5080239;28;45547;-74
2023/05/25 04:15:13;;;;;;;;;19.50;17.75;;;;;17.29;68.14;100524.44;5079937;27;45507;-74
2023/05/25 04:17:39;;;;;;;;;18.50;17.75;;;;;17.26;68.47;100519.16;5080701;27;45556;-74
2023/05/25 04:20:07;;;;;;;;;18.50;16.50;;;;;16.93;68.51;100461.00;5079757;28;46029;-74
2023/05/25 04:22:33;;;;;;;;;17.75;16.50;;;;;17.24;68.76;100520.03;5079740;28;45312;-77
2023/05/25 04:24:58;;;;;;;;;21.75;18.25;;;;;17.17;68.73;100505.94;5079578;27;45507;-74
2023/05/25 04:27:25;;;;;;;;;18.00;16.00;;;;;17.25;68.82;100522.69;5079682;27;45292;-74
2023/05/25 04:29:53;;;;;;;;;17.00;16.00;;;;;17.27;68.91;100512.13;5079304;27;46184;-74
2023/05/25 04:32:20;;;;;;;;;16.25;15.25;;;;;17.27;69.13;100512.13;5079253;28;45501;-74
2023/05/25 04:34:47;;;;;;;;;17.00;15.25;;;;;17.26;69.08;100511.22;5079596;28;45662;-73
2023/05/25 04:37:13;;;;;;;;;18.00;16.75;;;;;17.27;69.13;100513.00;5079705;27;45347;-75
2023/05/25 04:39:39;;;;;;;;;16.50;16.00;;;;;17.13;68.83;100482.16;5078248;28;47933;-74
2023/05/25 04:42:05;;;;;;;;;18.25;17.00;;;;;17.10;69.26;100486.56;5079511;28;45848;-74
2023/05/25 04:44:31;;;;;;;;;19.50;16.00;;;;;17.27;69.17;100512.13;5079584;27;45458;-74
2023/05/25 04:46:58;;;;;;;;;18.00;17.25;;;;;17.06;69.29;100481.28;5079632;28;45249;-74
2023/05/25 04:49:25;;;;;;;;;18.25;17.25;;;;;17.27;69.19;100520.94;5079106;28;46215;-74
2023/05/25 04:51:51;;;;;;;;;20.75;18.50;;;;;17.28;69.34;100522.66;5079279;28;45284;-74
2023/05/25 04:54:16;;;;;;;;;19.00;17.00;;;;;17.31;69.23;100524.47;5079596;28;45256;-74
2023/05/25 04:56:42;;;;;;;;;23.50;18.00;;;;;17.35;69.19;100530.59;5080075;28;45335;-74
2023/05/25 04:59:08;;;;;;;;;19.50;18.00;;;;;17.36;69.22;100535.88;5079380;28;46300;-74
2023/05/25 05:01:39;;;;;;;;;18.50;16.50;;;;;17.15;69.02;100506.78;5079544;28;45421;-74
2023/05/25 05:04:05;;;;;;;;;22.50;19.50;;;;;17.14;69.07;100499.78;5079431;27;45315;-74
2023/05/25 05:06:31;;;;;;;;;21.25;18.50;;;;;17.34;68.83;100526.22;5079686;28;45234;-74
2023/05/25 05:08:56;;;;;;;;;19.00;18.00;;;;;17.21;68.60;100507.72;5078732;28;45804;-74
2023/05/25 05:11:22;;;;;;;;;18.75;16.75;;;;;17.44;68.66;100523.59;5079197;27;45415;-75
2023/05/25 05:13:48;;;;;;;;;18.50;17.00;;;;;17.50;68.55;100535.91;5079229;28;45215;-74
2023/05/25 05:16:13;;;;;;;;;17.25;17.00;;;;;17.53;68.48;100533.28;5079747;28;45346;-75
2023/05/25 05:18:39;;;;;;;;;19.00;18.00;;;;;17.57;68.22;100542.97;5078971;28;45537;-74
2023/05/25 05:21:04;;;;;;;;;18.75;16.25;;;;;17.58;68.10;100535.94;5079003;28;45492;-74
2023/05/25 05:23:30;;;;;;;;;18.75;17.25;;;;;17.60;68.38;100537.69;5079382;28;45962;-75
2023/05/25 05:25:55;;;;;;;;;23.00;22.00;;;;;17.65;68.21;100535.06;5079002;28;45551;-74
2023/05/25 05:28:26;;;;;;;;;23.75;21.75;;;;;17.67;67.97;100526.25;5078803;27;45710;-75
2023/05/25 05:30:51;;;;;;;;;16.75;16.00;;;;;17.67;67.59;100513.03;5078960;27;45449;-74
2023/05/25 05:33:17;;;;;;;;;16.00;15.00;;;;;17.82;67.26;100522.72;5078860;28;45220;-75
2023/05/25 05:35:43;;;;;;;;;19.50;17.25;;;;;17.99;67.26;100530.69;5079489;28;45589;-75
2023/05/25 05:38:08;;;;;;;;;18.75;16.75;;;;;17.98;67.40;100547.41;5078867;28;45466;-74
2023/05/25 05:40:34;;;;;;;;;17.75;16.75;;;;;17.37;67.37;100426.78;5078722;28;45374;-75
2023/05/25 05:43:00;;;;;;;;;18.25;18.25;;;;;18.02;67.08;100532.44;5079088;27;45510;-75
2023/05/25 05:45:25;;;;;;;;;18.25;17.25;;;;;18.24;66.82;100525.38;5078964;28;45532;-75
2023/05/25 05:47:50;;;;;;;;;16.50;16.50;;;;;18.43;66.19;100537.66;5078802;28;46187;-75
2023/05/25 05:50:16;;;;;;;;;19.75;18.00;;;;;18.44;66.12;100543.84;5079098;28;45403;-75
2023/05/25 05:52:42;;;;;;;;;24.75;21.50;;;;;18.42;66.06;100543.84;5079026;28;45500;-75
2023/05/25 05:55:08;;;;;;;;;19.00;18.50;;;;;18.36;65.88;100540.31;5078031;27;45417;-75
2023/05/25 05:57:33;;;;;;;;;25.50;21.00;;;;;18.37;66.09;100547.41;5078402;28;46462;-75
2023/05/25 05:59:59;;;;;;;;;20.75;20.50;;;;;18.42;66.11;100545.59;5078225;28;45322;-75
2023/05/25 06:02:24;;;;;;;;;20.75;19.25;;;;;18.40;65.91;100545.63;5078473;28;45479;-75
2023/05/25 06:04:50;;;;;;;;;19.25;15.50;;;;;18.43;66.13;100545.59;5078501;28;45601;-76
2023/05/25 06:07:15;;;;;;;;;18.67;18.00;;;;;18.45;66.10;100551.78;5078358;27;45398;-75
2023/05/25 06:09:41;;;;;;;;;19.00;15.67;;;;;18.45;66.19;100549.13;5078260;28;45359;-75
2023/05/25 06:12:07;;;;;;;;;18.25;16.50;;;;;18.54;65.81;100550.84;5077919;28;45239;-72
2023/05/25 06:14:32;;;;;;;;;23.00;19.25;;;;;18.60;65.44;100539.38;5078162;28;45660;-75
2023/05/25 06:16:58;;;;;;;;;19.50;18.50;;;;;18.71;65.09;100542.00;5078239;28;45462;-72
2023/05/25 06:19:23;;;;;;;;;17.50;16.50;;;;;18.81;65.11;100549.94;5077811;28;45521;-75
2023/05/25 06:21:49;;;;;;;;;17.67;15.67;;;;;18.58;65.20;100523.53;5059834;28;45494;-75
2023/05/25 06:24:15;;;;;;;;;15.50;15.00;;;;;18.76;65.07;100546.41;5078403;28;45435;-74
2023/05/25 06:26:40;;;;;;;;;23.75;23.00;;;;;18.74;65.18;100540.25;5077575;28;46489;-74
2023/05/25 06:29:06;;;;;;;;;21.00;18.00;;;;;18.60;65.27;100519.13;5077728;28;45537;-75
2023/05/25 06:31:31;;;;;;;;;14.67;14.67;;;;;18.76;65.39;100546.41;5077980;28;45533;-74
2023/05/25 06:33:57;;;;;;;;;16.67;14.33;;;;;18.66;64.98;100518.19;5077851;28;45437;-74
2023/05/25 06:36:22;;;;;;;;;14.67;12.67;;;;;18.90;65.28;100550.78;5077543;28;46255;-74
2023/05/25 06:38:48;;;;;;;;;14.00;13.33;;;;;18.91;64.85;100536.66;5059444;28;45360;-77
2023/05/25 06:41:14;;;;;;;;;16.00;15.00;;;;;18.76;64.63;100480.25;5077699;28;45449;-74
2023/05/25 06:43:41;;;;;;;;;14.00;13.00;;;;;19.51;64.33;100557.53;5078099;28;45809;-78
2023/05/25 06:46:09;;;;;;;;;15.00;14.00;;;;;20.01;62.68;100533.28;5077669;28;45518;-78
2023/05/25 06:48:34;;;;;;;;;12.00;11.67;;;;;20.04;61.93;100554.50;5077516;28;45363;-78
2023/05/25 06:51:00;;;;;;;;;11.00;10.33;;;;;19.72;62.21;100515.00;5077575;28;45471;-75
2023/05/25 06:53:25;;;;;;;;;11.33;10.33;;;;;19.88;62.03;100544.03;5077496;28;45304;-75
2023/05/25 06:55:51;;;;;;;;;13.00;13.00;;;;;20.01;62.54;100556.28;5077229;28;46035;-75
2023/05/25 06:58:16;;;;;;;;;11.33;9.33;;;;;20.24;61.29;100551.66;5077333;28;45380;-77
2023/05/25 07:00:42;;;;;;;;;9.33;8.33;;;;;20.79;60.17;100567.91;5077519;28;45487;-76
2023/05/25 07:03:08;;;;;;;;;9.33;9.00;;;;;20.82;57.68;100518.31;5077622;28;45387;-76
2023/05/25 07:05:33;;;;;;;;;9.67;8.33;;;;;21.15;54.33;100565.69;5076797;27;45557;-76
2023/05/25 07:07:58;;;;;;;;;10.00;9.33;;;;;20.90;54.56;100534.16;5075781;28;45510;-77
2023/05/25 07:10:24;;;;;;;;;8.67;8.00;;;;;20.64;54.04;100463.66;5077389;28;45222;-77
2023/05/25 07:12:49;;;;;;;;;9.00;9.00;;;;;21.44;53.08;100506.84;5077838;28;45402;-77
2023/05/25 07:15:15;;;;;;;;;10.67;8.33;;;;;22.01;52.47;100541.38;5076894;28;46051;-76
2023/05/25 07:17:41;;;;;;;;;8.00;7.67;;;;;22.44;52.61;100569.91;5077218;28;45279;-78
2023/05/25 07:20:07;;;;;;;;;7.33;7.00;;;;;22.52;51.36;100552.91;5058992;28;45938;-78
2023/05/25 07:22:33;;;;;;;;;9.00;8.00;;;;;22.64;50.06;100528.69;5077422;28;45424;-77
2023/05/25 07:24:59;;;;;;;;;8.33;7.67;;;;;24.16;46.73;100578.63;5076728;28;45561;-78
2023/05/25 07:27:24;;;;;;;;;8.00;7.00;;;;;26.55;41.67;100566.03;5076058;28;45443;-77
2023/05/25 07:29:50;;;;;;;;;9.00;8.00;;;;;25.53;40.25;100499.88;5076683;28;45398;-78
2023/05/25 07:32:16;;;;;;;;;10.00;9.33;;;;;24.54;41.78;100518.00;5076592;28;45461;-78
2023/05/25 07:34:41;;;;;;;;;8.00;8.00;;;;;24.25;43.81;100580.16;5076343;28;46100;-78
2023/05/25 07:37:07;;;;;;;;;11.00;8.33;;;;;23.79;44.00;100547.50;5076842;28;45307;-84
2023/05/25 07:39:32;;;;;;;;;7.00;6.67;;;;;24.53;42.84;100568.78;5075487;28;45612;-78
2023/05/25 07:41:58;;;;;;;;;8.00;7.00;;;;;24.97;39.67;100543.47;5076303;28;45517;-82
2023/05/25 07:44:23;;;;;;;;;7.00;7.00;;;;;26.61;37.20;100560.50;5058431;28;46954;-80
2023/05/25 07:46:49;;;;;;;;;6.00;5.67;;;;;26.18;38.58;100570.00;5077074;28;45568;-85
2023/05/25 07:49:15;;;;;;;;;6.00;6.00;;;;;28.11;34.67;100582.38;5076884;28;45522;-86
2023/05/25 07:51:44;;;;;;;;;5.67;5.00;;;;;28.99;34.76;100576.75;5075809;28;45606;-81
2023/05/25 07:54:10;;;;;;;;;8.33;7.67;;;;;29.72;33.05;100583.19;5075340;28;45404;-77
2023/05/25 07:56:36;;;;;;;;;6.67;6.33;;;;;29.77;33.03;100453.72;5075580;28;45469;-77
2023/05/25 07:59:02;;;;;;;;;8.00;7.00;;;;;31.51;33.08;100563.00;5073298;27;45409;-78
2023/05/25 08:01:27;;;;;;;;;6.33;6.33;;;;;31.31;30.06;100583.88;5075771;28;45433;-77
2023/05/25 08:03:53;;;;;;;;;6.00;6.00;;;;;31.26;29.62;100571.63;5076570;28;45524;-77
2023/05/25 08:06:19;;;;;;;;;7.33;6.33;;;;;31.35;29.33;100562.97;5077000;27;45367;-77
2023/05/25 08:08:45;;;;;;;;;6.00;5.00;;;;;31.77;31.44;100584.94;5076182;28;45467;-79
2023/05/25 08:11:11;;;;;;;;;5.00;4.00;;;;;31.20;31.05;100583.63;5076517;28;45232;-79
2023/05/25 08:13:37;;;;;;;;;5.33;5.00;;;;;30.92;29.81;100582.44;5076265;28;45489;-79
2023/05/25 08:16:03;;;;;;;;;4.33;3.33;;;;;31.47;29.00;100583.03;5076554;28;45272;-79
2023/05/25 08:18:32;;;;;;;;;5.00;5.00;;;;;31.54;30.01;100584.44;5077479;28;45432;-79
2023/05/25 08:20:57;;;;;;;;;5.00;5.00;;;;;30.68;29.45;100562.13;5079980;28;45566;-79
2023/05/25 08:23:23;;;;;;;;;7.00;6.33;;;;;30.87;29.16;100580.91;5080067;28;46039;-80
2023/05/25 08:25:48;;;;;;;;;5.33;5.33;;;;;31.05;29.51;100576.38;5082004;28;45441;-79
2023/05/25 08:28:14;;;;;;;;;7.00;6.00;;;;;30.51;30.49;100571.16;5080155;28;45413;-79
2023/05/25 08:30:40;;;;;;;;;4.00;4.00;;;;;31.47;29.43;100581.22;5080033;28;45584;-80
2023/05/25 08:33:06;;;;;;;;;5.00;5.00;;;;;32.15;29.86;100563.78;5079261;28;45523;-78
2023/05/25 08:35:31;;;;;;;;;6.33;5.33;;;;;32.40;27.05;100540.69;5060982;28;45300;-80
2023/05/25 08:37:57;;;;;;;;;6.00;4.00;;;;;33.10;26.40;100554.38;5079568;27;45230;-75
2023/05/25 08:40:27;;;;;;;;;4.33;4.00;;;;;33.53;26.18;100562.44;5080099;28;45587;-75
2023/05/25 08:42:52;;;;;;;;;5.67;5.33;;;;;32.90;25.66;100550.22;5079432;28;45397;-77
2023/05/25 08:45:18;;;;;;;;;4.67;4.00;;;;;33.44;26.53;100550.34;5078919;28;45428;-78
2023/05/25 08:47:47;;;;;;;;;5.00;5.00;;;;;34.23;26.29;100569.53;5078752;28;45307;-77
2023/05/25 08:50:15;;;;;;;;;6.00;6.00;;;;;35.49;25.71;100562.41;5078582;27;45407;-77
2023/05/25 08:52:47;;;;;;;;;5.00;3.00;;;;;36.65;23.46;100576.28;5078470;27;45664;-79
2023/05/25 08:55:14;;;;;;;;;7.00;6.67;;;;;36.79;23.71;100513.47;5078611;27;45760;-79
2023/05/25 08:58:14;;;;;;;;;7.67;6.67;;;;;37.42;22.91;100569.13;5078412;27;45361;-78
2023/05/25 09:00:49;;;;;;;;;5.67;4.67;;;;;37.48;22.76;100567.72;5060722;28;46131;-79
2023/05/25 09:03:18;;;;;;;;;3.67;3.67;;;;;37.17;22.25;100548.47;5078975;28;45465;-78
2023/05/25 09:05:45;;;;;;;;;5.67;5.67;;;;;36.31;24.02;100579.78;5060934;28;45537;-77
2023/05/25 09:08:10;;;;;;;;;4.33;4.33;;;;;36.22;23.22;100548.72;5078918;28;45568;-79
2023/05/25 09:10:37;;;;;;;;;4.00;3.67;;;;;36.19;23.40;100561.69;5078842;28;45426;-79
2023/05/25 09:13:04;;;;;;;;;16.67;15.67;;;;;35.97;24.31;100576.03;5078702;28;45511;-81
2023/05/25 09:15:31;;;;;;;;;4.33;4.00;;;;;35.46;24.43;100571.69;5078816;27;45403;-79
2023/05/25 09:17:56;;;;;;;;;0.00;0.00;;;;;35.09;23.59;100571.63;5079313;27;45339;-76
2023/05/25 09:20:23;;;;;;;;;4.33;4.00;;;;;34.08;24.33;100481.97;5078908;27;45490;-78
2023/05/25 09:22:49;;;;;;;;;3.00;3.00;;;;;34.41;24.23;100578.25;5078745;27;46199;-79
2023/05/25 09:25:21;;;;;;;;;2.67;2.67;;;;;34.32;25.55;100570.72;5078551;28;45418;-78
2023/05/25 09:27:48;;;;;;;;;5.00;4.33;;;;;34.54;25.74;100561.97;5078735;28;45434;-78
2023/05/25 09:30:14;;;;;;;;;5.00;3.67;;;;;34.82;25.02;100526.50;5077619;27;45275;-79
2023/05/25 09:32:40;;;;;;;;;4.00;4.00;;;;;34.73;23.75;100567.00;5078146;28;45484;-77
2023/05/25 09:35:11;;;;;;;;;4.00;4.00;;;;;34.39;25.60;100566.63;5078424;27;45433;-78
2023/05/25 09:37:36;;;;;;;;;4.33;3.67;;;;;34.31;24.68;100561.75;5078371;28;45411;-79
2023/05/25 09:40:04;;;;;;;;;5.00;4.67;;;;;33.66;25.10;100511.03;5078203;28;45497;-79
2023/05/25 09:42:32;;;;;;;;;4.00;4.00;;;;;33.34;26.14;100546.50;5078389;28;45404;-77
2023/05/25 09:44:58;;;;;;;;;4.00;4.00;;;;;33.03;25.99;100542.19;5078721;27;45714;-81
2023/05/25 09:47:25;;;;;;;;;5.00;5.00;;;;;32.34;27.05;100558.16;5078382;28;45576;-79
2023/05/25 09:49:52;;;;;;;;;7.67;7.33;;;;;32.27;26.54;100519.84;5078297;28;45388;-78
2023/05/25 09:52:17;;;;;;;;;4.67;4.67;;;;;33.17;27.11;100554.88;5078125;27;45453;-80
2023/05/25 09:54:45;;;;;;;;;5.00;4.33;;;;;33.88;25.73;100515.84;5077386;27;45439;-78
2023/05/25 09:57:10;;;;;;;;;6.00;6.00;;;;;34.75;25.60;100551.47;5078012;28;45355;-77
2023/05/25 09:59:36;;;;;;;;;4.00;4.00;;;;;35.17;25.28;100543.94;5078366;27;45510;-78
2023/05/25 10:02:01;;;;;;;;;3.33;2.00;;;;;35.50;24.06;100543.28;5077449;27;46046;-76
2023/05/25 10:04:27;;;;;;;;;4.67;4.67;;;;;35.08;22.92;100545.47;5077798;28;45491;-78
2023/05/25 10:06:55;;;;;;;;;2.67;2.67;;;;;35.35;24.26;100536.28;5077937;27;45516;-77
2023/05/25 10:09:22;;;;;;;;;3.00;2.67;;;;;35.68;23.69;100524.78;5060102;28;45791;-80
2023/05/25 10:11:50;;;;;;;;;3.00;3.00;;;;;35.97;22.87;100510.78;5078130;28;46059;-80
2023/05/25 10:14:24;;;;;;;;;3.00;3.00;;;;;36.03;22.10;100505.75;5077089;28;45532;-79
2023/05/25 10:16:53;;;;;;;;;4.00;4.00;;;;;35.92;23.10;100510.28;5077337;28;45461;-80
2023/05/25 10:19:27;;;;;;;;;5.00;4.33;;;;;35.95;23.25;100529.97;5077528;28;45357;-80
2023/05/25 10:22:15;;;;;;;;;4.00;4.00;;;;;35.03;22.09;100526.78;5077177;28;46299;-79
2023/05/25 10:25:33;;;;;;;;;4.00;4.00;;;;;34.43;23.97;100525.63;5076927;28;45349;-77
2023/05/25 10:28:02;;;;;;;;;3.00;3.00;;;;;33.97;24.18;100517.09;5053422;27;45603;-77
2023/05/25 10:30:27;;;;;;;;;5.33;5.33;;;;;34.31;23.54;100528.34;5078222;28;45333;-77
2023/05/25 10:32:56;;;;;;;;;4.00;2.00;;;;;34.57;22.68;100519.22;5077164;27;45976;-77
2023/05/25 10:35:23;;;;;;;;;3.67;3.67;;;;;34.45;23.32;100468.56;5077619;28;45252;-77
2023/05/25 10:37:51;;;;;;;;;2.00;2.00;;;;;34.98;23.04;100520.84;5077621;27;45240;-76
2023/05/25 10:40:20;;;;;;;;;3.67;2.00;;;;;34.80;23.45;100509.47;5077877;28;45305;-80
2023/05/25 10:42:46;;;;;;;;;3.67;3.00;;;;;35.26;23.45;100524.28;5077249;28;46029;-77
2023/05/25 10:45:12;;;;;;;;;3.00;2.67;;;;;35.42;23.73;100518.56;5077328;28;45509;-77
2023/05/25 10:47:42;;;;;;;;;2.00;2.00;;;;;35.45;22.97;100532.78;5077766;28;45550;-77
2023/05/25 10:50:25;;;;;;;;;3.00;2.00;;;;;35.32;23.67;100525.66;5078025;28;45505;-77
2023/05/25 10:52:58;;;;;;;;;4.67;4.33;;;;;34.00;23.89;100443.69;5077091;27;46310;-77
2023/05/25 10:55:30;;;;;;;;;3.67;3.00;;;;;34.30;24.78;100513.03;5077476;28;45616;-80
2023/05/25 10:58:14;;;;;;;;;4.00;3.00;;;;;33.78;24.88;100510.19;5077766;28;45235;-80
2023/05/25 11:00:40;;;;;;;;;4.67;4.33;;;;;33.07;25.40;100497.72;5077431;28;45304;-81
2023/05/25 11:03:07;;;;;;;;;4.33;4.33;;;;;31.49;27.24;100519.03;5077258;28;46177;-81
2023/05/25 11:05:35;;;;;;;;;3.00;2.67;;;;;31.98;27.38;100520.69;5077363;28;45215;-81
2023/05/25 11:08:03;;;;;;;;;3.00;3.00;;;;;32.14;27.30;100478.28;5077767;28;45346;-81
2023/05/25 11:10:52;;;;;;;;;3.67;3.00;;;;;32.26;27.67;100519.91;5077575;28;45573;-80
2023/05/25 11:13:29;;;;;;;;;2.00;2.00;;;;;32.01;27.95;100512.41;5071510;28;45512;-78
2023/05/25 11:16:33;;;;;;;;;2.00;2.00;;;;;31.67;27.75;100512.56;5077068;28;45455;-81